<?xml version="1.0" encoding="UTF-8" standalone="no" ?>
<gpx xmlns="http://www.topografix.com/GPX/1/1" xmlns:xsi="http://www.w3.org/2001/XMLSchema-instance" xsi:schemaLocation="http://www.topografix.com/GPX/1/1 http://www.topografix.com/GPX/1/1/gpx.xsd" version="1.1" creator="VisuGPX - https://www.visugpx.com">
  <metadata>
    <name>bignan kerguehennec</name>
    <desc><![CDATA[circuit de kerguehennec]]></desc>
  </metadata>
  <trk>
    <name><![CDATA[Circuit de Kerguehennec]]></name>
    <trkseg>
      <trkpt lat="47.87805" lon="-2.77409">
        <ele>125.5</ele>
        <time>2010-10-01T08:19:41Z</time>
      </trkpt>
      <trkpt lat="47.87839" lon="-2.77382">
        <ele>126.3</ele>
        <time>2010-10-01T08:19:44Z</time>
      </trkpt>
      <trkpt lat="47.87869" lon="-2.77451">
        <ele>125.6</ele>
        <time>2010-10-01T08:19:47Z</time>
      </trkpt>
      <trkpt lat="47.87884" lon="-2.77444">
        <ele>125.3</ele>
        <time>2010-10-01T08:19:58Z</time>
      </trkpt>
      <trkpt lat="47.87906" lon="-2.77459">
        <ele>124.7</ele>
        <time>2010-10-01T08:20:07Z</time>
      </trkpt>
      <trkpt lat="47.87932" lon="-2.77469">
        <ele>122.6</ele>
        <time>2010-10-01T08:20:17Z</time>
      </trkpt>
      <trkpt lat="47.87943" lon="-2.775">
        <ele>120.5</ele>
        <time>2010-10-01T08:20:25Z</time>
      </trkpt>
      <trkpt lat="47.87932" lon="-2.77547">
        <ele>120.6</ele>
        <time>2010-10-01T08:21:39Z</time>
      </trkpt>
      <trkpt lat="47.8793" lon="-2.77607">
        <ele>119.3</ele>
        <time>2010-10-01T08:19:54Z</time>
      </trkpt>
      <trkpt lat="47.87944" lon="-2.77674">
        <ele>117.5</ele>
        <time>2010-10-01T08:20:41Z</time>
      </trkpt>
      <trkpt lat="47.88012" lon="-2.77599">
        <ele>112.5</ele>
        <time>2010-10-01T08:20:17Z</time>
      </trkpt>
      <trkpt lat="47.88043" lon="-2.77653">
        <ele>110.3</ele>
        <time>2010-10-01T08:20:30Z</time>
      </trkpt>
      <trkpt lat="47.88099" lon="-2.77597">
        <ele>106.5</ele>
        <time>2010-10-01T08:20:41Z</time>
      </trkpt>
      <trkpt lat="47.88137" lon="-2.77646">
        <ele>103.6</ele>
        <time>2010-10-01T08:20:56Z</time>
      </trkpt>
      <trkpt lat="47.88222" lon="-2.77603">
        <ele>100.4</ele>
        <time>2010-10-01T08:21:04Z</time>
      </trkpt>
      <trkpt lat="47.88261" lon="-2.77525">
        <ele>97.3</ele>
        <time>2010-10-01T08:21:14Z</time>
      </trkpt>
      <trkpt lat="47.88281" lon="-2.77478">
        <ele>97.3</ele>
        <time>2010-10-01T08:20:58Z</time>
      </trkpt>
      <trkpt lat="47.88293" lon="-2.77429">
        <ele>100.4</ele>
        <time>2010-10-01T08:10:32Z</time>
      </trkpt>
      <trkpt lat="47.88313" lon="-2.77406">
        <ele>96.2</ele>
        <time>2010-10-01T08:01:29Z</time>
      </trkpt>
      <trkpt lat="47.88329" lon="-2.77375">
        <ele>94.5</ele>
        <time>2010-10-01T07:44:46Z</time>
      </trkpt>
      <trkpt lat="47.88358" lon="-2.77323">
        <ele>97</ele>
        <time>2010-10-01T07:14:20Z</time>
      </trkpt>
      <trkpt lat="47.88414" lon="-2.77336">
        <ele>98.8</ele>
        <time>2010-10-01T07:17:06Z</time>
      </trkpt>
      <trkpt lat="47.88439" lon="-2.77367">
        <ele>99.6</ele>
        <time>2010-10-01T07:19:51Z</time>
      </trkpt>
      <trkpt lat="47.88467" lon="-2.77386">
        <ele>99.9</ele>
        <time>2010-10-01T07:22:18Z</time>
      </trkpt>
      <trkpt lat="47.885" lon="-2.77397">
        <ele>100.1</ele>
        <time>2010-10-01T07:26:09Z</time>
      </trkpt>
      <trkpt lat="47.88541" lon="-2.77409">
        <ele>98.9</ele>
        <time>2010-10-01T07:28:10Z</time>
      </trkpt>
      <trkpt lat="47.8857" lon="-2.77404">
        <ele>98.9</ele>
        <time>2010-10-01T07:30:29Z</time>
      </trkpt>
      <trkpt lat="47.8861" lon="-2.7739">
        <ele>98.5</ele>
        <time>2010-10-01T07:32:07Z</time>
      </trkpt>
      <trkpt lat="47.88682" lon="-2.77348">
        <ele>95.4</ele>
        <time>2010-10-01T07:36:53Z</time>
      </trkpt>
      <trkpt lat="47.88716" lon="-2.773">
        <ele>93.1</ele>
        <time>2010-10-01T07:39:01Z</time>
      </trkpt>
      <trkpt lat="47.88746" lon="-2.77256">
        <ele>92.2</ele>
        <time>2010-10-01T07:41:17Z</time>
      </trkpt>
      <trkpt lat="47.88753" lon="-2.7721">
        <ele>93.6</ele>
        <time>2010-10-01T07:42:58Z</time>
      </trkpt>
      <trkpt lat="47.8876" lon="-2.7714">
        <ele>95.1</ele>
        <time>2010-10-01T07:45:26Z</time>
      </trkpt>
      <trkpt lat="47.88772" lon="-2.77119">
        <ele>94.7</ele>
        <time>2010-10-01T07:47:35Z</time>
      </trkpt>
      <trkpt lat="47.88813" lon="-2.77042">
        <ele>96.3</ele>
        <time>2010-10-01T07:50:53Z</time>
      </trkpt>
      <trkpt lat="47.8883" lon="-2.76951">
        <ele>95.3</ele>
        <time>2010-10-01T07:52:42Z</time>
      </trkpt>
      <trkpt lat="47.88865" lon="-2.76889">
        <ele>94.7</ele>
        <time>2010-10-01T07:54:58Z</time>
      </trkpt>
      <trkpt lat="47.88826" lon="-2.76887">
        <ele>91.6</ele>
        <time>2010-10-01T07:35:38Z</time>
      </trkpt>
      <trkpt lat="47.88777" lon="-2.76882">
        <ele>92.9</ele>
        <time>2010-10-01T07:36:14Z</time>
      </trkpt>
      <trkpt lat="47.88686" lon="-2.76848">
        <ele>98.5</ele>
        <time>2010-10-01T07:46:34Z</time>
      </trkpt>
      <trkpt lat="47.88693" lon="-2.76749">
        <ele>96.7</ele>
        <time>2010-10-01T07:53:51Z</time>
      </trkpt>
      <trkpt lat="47.88718" lon="-2.76597">
        <ele>96.4</ele>
        <time>2010-10-01T07:58:24Z</time>
      </trkpt>
      <trkpt lat="47.88736" lon="-2.76484">
        <ele>100.4</ele>
        <time>2010-10-01T08:01:19Z</time>
      </trkpt>
      <trkpt lat="47.8874" lon="-2.7642">
        <ele>102.6</ele>
        <time>2010-10-01T08:03:34Z</time>
      </trkpt>
      <trkpt lat="47.88749" lon="-2.76366">
        <ele>104.8</ele>
        <time>2010-10-01T08:04:45Z</time>
      </trkpt>
      <trkpt lat="47.88754" lon="-2.76271">
        <ele>106.7</ele>
        <time>2010-10-01T08:08:09Z</time>
      </trkpt>
      <trkpt lat="47.88813" lon="-2.76265">
        <ele>105.6</ele>
        <time>2010-10-01T08:21:36Z</time>
      </trkpt>
      <trkpt lat="47.88828" lon="-2.76271">
        <ele>105.3</ele>
        <time>2010-10-01T08:21:31Z</time>
      </trkpt>
      <trkpt lat="47.88835" lon="-2.76279">
        <ele>105.2</ele>
        <time>2010-10-01T08:21:29Z</time>
      </trkpt>
      <trkpt lat="47.8885" lon="-2.76282">
        <ele>102.9</ele>
        <time>2010-10-01T08:21:25Z</time>
      </trkpt>
      <trkpt lat="47.88863" lon="-2.76282">
        <ele>101</ele>
        <time>2010-10-01T08:21:22Z</time>
      </trkpt>
      <trkpt lat="47.88878" lon="-2.7626">
        <ele>99</ele>
        <time>2010-10-01T08:21:14Z</time>
      </trkpt>
      <trkpt lat="47.88896" lon="-2.76212">
        <ele>94.6</ele>
        <time>2010-10-01T08:20:59Z</time>
      </trkpt>
      <trkpt lat="47.88903" lon="-2.76195">
        <ele>92.7</ele>
        <time>2010-10-01T08:20:54Z</time>
      </trkpt>
      <trkpt lat="47.88912" lon="-2.76189">
        <ele>91</ele>
        <time>2010-10-01T08:20:51Z</time>
      </trkpt>
      <trkpt lat="47.88977" lon="-2.76194">
        <ele>86.9</ele>
        <time>2010-10-01T08:19:42Z</time>
      </trkpt>
      <trkpt lat="47.88981" lon="-2.76143">
        <ele>85.8</ele>
        <time>2010-10-01T08:17:25Z</time>
      </trkpt>
      <trkpt lat="47.88976" lon="-2.76114">
        <ele>85.4</ele>
        <time>2010-10-01T08:13:00Z</time>
      </trkpt>
      <trkpt lat="47.8894" lon="-2.76078">
        <ele>85.1</ele>
        <time>2010-10-01T08:03:45Z</time>
      </trkpt>
      <trkpt lat="47.88903" lon="-2.76042">
        <ele>86</ele>
        <time>2010-10-01T07:43:19Z</time>
      </trkpt>
      <trkpt lat="47.88873" lon="-2.75985">
        <ele>86.4</ele>
        <time>2010-10-01T07:46:49Z</time>
      </trkpt>
      <trkpt lat="47.88871" lon="-2.75907">
        <ele>85.5</ele>
        <time>2010-10-01T07:50:07Z</time>
      </trkpt>
      <trkpt lat="47.88896" lon="-2.75837">
        <ele>84.5</ele>
        <time>2010-10-01T07:52:57Z</time>
      </trkpt>
      <trkpt lat="47.88933" lon="-2.75773">
        <ele>86.7</ele>
        <time>2010-10-01T07:55:29Z</time>
      </trkpt>
      <trkpt lat="47.88942" lon="-2.75737">
        <ele>88.2</ele>
        <time>2010-10-01T07:56:33Z</time>
      </trkpt>
      <trkpt lat="47.88924" lon="-2.75641">
        <ele>89.3</ele>
        <time>2010-10-01T07:29:31Z</time>
      </trkpt>
      <trkpt lat="47.88954" lon="-2.75582">
        <ele>90.3</ele>
        <time>2010-10-01T07:32:16Z</time>
      </trkpt>
      <trkpt lat="47.88919" lon="-2.75525">
        <ele>87.7</ele>
        <time>2010-10-01T07:35:19Z</time>
      </trkpt>
      <trkpt lat="47.88887" lon="-2.75463">
        <ele>86.9</ele>
        <time>2010-10-01T07:38:27Z</time>
      </trkpt>
      <trkpt lat="47.8887" lon="-2.75366">
        <ele>87.2</ele>
        <time>2010-10-01T07:44:59Z</time>
      </trkpt>
      <trkpt lat="47.88848" lon="-2.75341">
        <ele>86.2</ele>
        <time>2010-10-01T08:21:46Z</time>
      </trkpt>
      <trkpt lat="47.8883" lon="-2.75199">
        <ele>83.5</ele>
        <time>2010-10-01T08:22:44Z</time>
      </trkpt>
      <trkpt lat="47.88821" lon="-2.75116">
        <ele>74.5</ele>
        <time>2010-10-01T08:23:41Z</time>
      </trkpt>
      <trkpt lat="47.88809" lon="-2.75031">
        <ele>76.5</ele>
        <time>2010-10-01T08:23:55Z</time>
      </trkpt>
      <trkpt lat="47.88819" lon="-2.74901">
        <ele>76.2</ele>
        <time>2010-10-01T08:24:06Z</time>
      </trkpt>
      <trkpt lat="47.88828" lon="-2.74764">
        <ele>75.1</ele>
        <time>2010-10-01T08:24:22Z</time>
      </trkpt>
      <trkpt lat="47.88769" lon="-2.74705">
        <ele>76.1</ele>
        <time>2010-10-01T08:24:28Z</time>
      </trkpt>
      <trkpt lat="47.88744" lon="-2.7461">
        <ele>75.5</ele>
        <time>2010-10-01T08:24:34Z</time>
      </trkpt>
      <trkpt lat="47.88694" lon="-2.7447">
        <ele>75.6</ele>
        <time>2010-10-01T08:24:50Z</time>
      </trkpt>
      <trkpt lat="47.88685" lon="-2.74351">
        <ele>79.6</ele>
        <time>2010-10-01T08:21:29Z</time>
      </trkpt>
      <trkpt lat="47.88701" lon="-2.74147">
        <ele>79.8</ele>
        <time>2010-10-01T08:25:07Z</time>
      </trkpt>
      <trkpt lat="47.88722" lon="-2.74126">
        <ele>80.8</ele>
        <time>2010-10-01T08:25:18Z</time>
      </trkpt>
      <trkpt lat="47.88808" lon="-2.73975">
        <ele>82.6</ele>
        <time>2010-10-01T08:19:31Z</time>
      </trkpt>
      <trkpt lat="47.88799" lon="-2.73857">
        <ele>85.6</ele>
        <time>2010-10-01T08:25:45Z</time>
      </trkpt>
      <trkpt lat="47.8883" lon="-2.73837">
        <ele>87.6</ele>
        <time>2010-10-01T08:25:55Z</time>
      </trkpt>
      <trkpt lat="47.88931" lon="-2.73762">
        <ele>88.9</ele>
        <time>2010-10-01T08:25:59Z</time>
      </trkpt>
      <trkpt lat="47.89054" lon="-2.73649">
        <ele>95.8</ele>
        <time>2010-10-01T08:26:04Z</time>
      </trkpt>
      <trkpt lat="47.89088" lon="-2.73625">
        <ele>96.7</ele>
        <time>2010-10-01T08:25:23Z</time>
      </trkpt>
      <trkpt lat="47.89129" lon="-2.73612">
        <ele>96.3</ele>
        <time>2010-10-01T08:22:58Z</time>
      </trkpt>
      <trkpt lat="47.89238" lon="-2.7359">
        <ele>95.9</ele>
        <time>2010-10-01T08:14:23Z</time>
      </trkpt>
      <trkpt lat="47.89237" lon="-2.73531">
        <ele>98</ele>
        <time>2010-10-01T07:45:50Z</time>
      </trkpt>
      <trkpt lat="47.89162" lon="-2.73537">
        <ele>101.1</ele>
        <time>2010-10-01T07:48:11Z</time>
      </trkpt>
      <trkpt lat="47.89133" lon="-2.73529">
        <ele>103.3</ele>
        <time>2010-10-01T07:50:05Z</time>
      </trkpt>
      <trkpt lat="47.89109" lon="-2.73521">
        <ele>107.2</ele>
        <time>2010-10-01T07:52:12Z</time>
      </trkpt>
      <trkpt lat="47.89081" lon="-2.73521">
        <ele>108.3</ele>
        <time>2010-10-01T07:53:41Z</time>
      </trkpt>
      <trkpt lat="47.89058" lon="-2.73509">
        <ele>107.6</ele>
        <time>2010-10-01T07:56:04Z</time>
      </trkpt>
      <trkpt lat="47.89039" lon="-2.73479">
        <ele>106.6</ele>
        <time>2010-10-01T07:57:34Z</time>
      </trkpt>
      <trkpt lat="47.89031" lon="-2.73409">
        <ele>106.5</ele>
        <time>2010-10-01T07:58:54Z</time>
      </trkpt>
      <trkpt lat="47.88994" lon="-2.7339">
        <ele>107</ele>
        <time>2010-10-01T06:39:49Z</time>
      </trkpt>
      <trkpt lat="47.88935" lon="-2.73328">
        <ele>110.3</ele>
        <time>2010-10-01T06:57:51Z</time>
      </trkpt>
      <trkpt lat="47.88892" lon="-2.73341">
        <ele>111.3</ele>
        <time>2010-10-01T07:05:48Z</time>
      </trkpt>
      <trkpt lat="47.88878" lon="-2.73315">
        <ele>111.5</ele>
        <time>2010-10-01T07:09:47Z</time>
      </trkpt>
      <trkpt lat="47.88851" lon="-2.73297">
        <ele>113.1</ele>
        <time>2010-10-01T07:14:53Z</time>
      </trkpt>
      <trkpt lat="47.88823" lon="-2.73269">
        <ele>115.9</ele>
        <time>2010-10-01T07:20:39Z</time>
      </trkpt>
      <trkpt lat="47.88803" lon="-2.73235">
        <ele>117.9</ele>
        <time>2010-10-01T07:25:25Z</time>
      </trkpt>
      <trkpt lat="47.88787" lon="-2.7322">
        <ele>118.6</ele>
        <time>2010-10-01T07:28:23Z</time>
      </trkpt>
      <trkpt lat="47.88753" lon="-2.73218">
        <ele>118.7</ele>
        <time>2010-10-01T07:32:31Z</time>
      </trkpt>
      <trkpt lat="47.88728" lon="-2.73253">
        <ele>116</ele>
        <time>2010-10-01T07:38:24Z</time>
      </trkpt>
      <trkpt lat="47.88704" lon="-2.73297">
        <ele>112</ele>
        <time>2010-10-01T07:43:17Z</time>
      </trkpt>
      <trkpt lat="47.88677" lon="-2.73359">
        <ele>109.2</ele>
        <time>2010-10-01T07:51:39Z</time>
      </trkpt>
      <trkpt lat="47.88645" lon="-2.73351">
        <ele>107.3</ele>
        <time>2010-10-01T08:26:17Z</time>
      </trkpt>
      <trkpt lat="47.88454" lon="-2.73405">
        <ele>93.9</ele>
        <time>2010-10-01T08:26:23Z</time>
      </trkpt>
      <trkpt lat="47.8843" lon="-2.73403">
        <ele>95.7</ele>
        <time>2010-10-01T08:26:26Z</time>
      </trkpt>
      <trkpt lat="47.88383" lon="-2.73062">
        <ele>111.8</ele>
        <time>2010-10-01T08:26:51Z</time>
      </trkpt>
      <trkpt lat="47.8843" lon="-2.73035">
        <ele>111.7</ele>
        <time>2010-10-01T08:26:58Z</time>
      </trkpt>
      <trkpt lat="47.88477" lon="-2.73009">
        <ele>113.2</ele>
        <time>2010-10-01T08:27:03Z</time>
      </trkpt>
      <trkpt lat="47.88493" lon="-2.72995">
        <ele>114</ele>
        <time>2010-10-01T08:27:05Z</time>
      </trkpt>
      <trkpt lat="47.88292" lon="-2.72502">
        <ele>103.2</ele>
        <time>2010-10-01T08:27:47Z</time>
      </trkpt>
      <trkpt lat="47.88202" lon="-2.72714">
        <ele>93.8</ele>
        <time>2010-10-01T08:28:04Z</time>
      </trkpt>
      <trkpt lat="47.88184" lon="-2.72789">
        <ele>103.7</ele>
        <time>2010-10-01T08:28:10Z</time>
      </trkpt>
      <trkpt lat="47.88169" lon="-2.72893">
        <ele>91.7</ele>
        <time>2010-10-01T08:28:18Z</time>
      </trkpt>
      <trkpt lat="47.88138" lon="-2.72993">
        <ele>102.2</ele>
        <time>2010-10-01T08:28:26Z</time>
      </trkpt>
      <trkpt lat="47.88101" lon="-2.73162">
        <ele>101.3</ele>
        <time>2010-10-01T08:28:38Z</time>
      </trkpt>
      <trkpt lat="47.88115" lon="-2.73209">
        <ele>89.2</ele>
        <time>2010-10-01T08:28:43Z</time>
      </trkpt>
      <trkpt lat="47.88116" lon="-2.73391">
        <ele>93.2</ele>
        <time>2010-10-01T08:28:57Z</time>
      </trkpt>
      <trkpt lat="47.88125" lon="-2.73511">
        <ele>95.6</ele>
        <time>2010-10-01T08:29:04Z</time>
      </trkpt>
      <trkpt lat="47.88083" lon="-2.73525">
        <ele>102.3</ele>
        <time>2010-10-01T08:29:18Z</time>
      </trkpt>
      <trkpt lat="47.88073" lon="-2.7344">
        <ele>125.5</ele>
        <time>2010-10-01T08:29:23Z</time>
      </trkpt>
      <trkpt lat="47.87995" lon="-2.73534">
        <ele>76.5</ele>
        <time>2010-10-01T08:29:34Z</time>
      </trkpt>
      <trkpt lat="47.87939" lon="-2.73585">
        <ele>78.3</ele>
        <time>2010-10-01T08:29:49Z</time>
      </trkpt>
      <trkpt lat="47.8791" lon="-2.73623">
        <ele>93.8</ele>
        <time>2010-10-01T05:19:03Z</time>
      </trkpt>
      <trkpt lat="47.87877" lon="-2.73664">
        <ele>92.6</ele>
        <time>2010-10-01T07:47:01Z</time>
      </trkpt>
      <trkpt lat="47.87852" lon="-2.7373">
        <ele>91.1</ele>
        <time>2010-10-01T08:30:02Z</time>
      </trkpt>
      <trkpt lat="47.87836" lon="-2.73792">
        <ele>88</ele>
        <time>2010-10-01T11:24:03Z</time>
      </trkpt>
      <trkpt lat="47.87834" lon="-2.73866">
        <ele>86</ele>
        <time>2010-10-01T10:30:08Z</time>
      </trkpt>
      <trkpt lat="47.87855" lon="-2.73912">
        <ele>83.7</ele>
        <time>2010-10-01T09:29:06Z</time>
      </trkpt>
      <trkpt lat="47.87864" lon="-2.73957">
        <ele>83.4</ele>
        <time>2010-10-01T08:23:45Z</time>
      </trkpt>
      <trkpt lat="47.87862" lon="-2.74002">
        <ele>83</ele>
        <time>2010-10-01T08:30:20Z</time>
      </trkpt>
      <trkpt lat="47.87856" lon="-2.74053">
        <ele>81.5</ele>
        <time>2010-10-01T08:30:29Z</time>
      </trkpt>
      <trkpt lat="47.87843" lon="-2.74136">
        <ele>80.3</ele>
        <time>2010-10-01T08:23:48Z</time>
      </trkpt>
      <trkpt lat="47.87825" lon="-2.74184">
        <ele>80</ele>
        <time>2010-10-01T02:56:14Z</time>
      </trkpt>
      <trkpt lat="47.87821" lon="-2.74249">
        <ele>79</ele>
        <time>2010-10-01T08:30:42Z</time>
      </trkpt>
      <trkpt lat="47.87829" lon="-2.74293">
        <ele>82.4</ele>
        <time>2010-10-01T08:22:13Z</time>
      </trkpt>
      <trkpt lat="47.87839" lon="-2.74319">
        <ele>85.9</ele>
        <time>2010-10-01T01:35:32Z</time>
      </trkpt>
      <trkpt lat="47.87899" lon="-2.74274">
        <ele>91.8</ele>
        <time>2010-10-01T02:22:48Z</time>
      </trkpt>
      <trkpt lat="47.87936" lon="-2.74262">
        <ele>95.3</ele>
        <time>2010-10-01T02:49:21Z</time>
      </trkpt>
      <trkpt lat="47.87956" lon="-2.74261">
        <ele>97</ele>
        <time>2010-10-01T03:03:03Z</time>
      </trkpt>
      <trkpt lat="47.87989" lon="-2.74261">
        <ele>100.1</ele>
        <time>2010-10-01T03:26:07Z</time>
      </trkpt>
      <trkpt lat="47.88019" lon="-2.74204">
        <ele>93.8</ele>
        <time>2010-10-01T03:35:01Z</time>
      </trkpt>
      <trkpt lat="47.88049" lon="-2.74207">
        <ele>93.1</ele>
        <time>2010-10-01T03:41:19Z</time>
      </trkpt>
      <trkpt lat="47.88068" lon="-2.74265">
        <ele>98.9</ele>
        <time>2010-10-01T03:44:19Z</time>
      </trkpt>
      <trkpt lat="47.88017" lon="-2.7431">
        <ele>101.3</ele>
        <time>2010-10-01T03:50:34Z</time>
      </trkpt>
      <trkpt lat="47.87982" lon="-2.74375">
        <ele>100.6</ele>
        <time>2010-10-01T03:56:24Z</time>
      </trkpt>
      <trkpt lat="47.87979" lon="-2.74472">
        <ele>99.2</ele>
        <time>2010-10-01T06:27:05Z</time>
      </trkpt>
      <trkpt lat="47.87937" lon="-2.74477">
        <ele>99.4</ele>
        <time>2010-10-01T08:30:55Z</time>
      </trkpt>
      <trkpt lat="47.87937" lon="-2.74588">
        <ele>96.4</ele>
        <time>2010-10-01T08:31:17Z</time>
      </trkpt>
      <trkpt lat="47.87916" lon="-2.74657">
        <ele>94.2</ele>
        <time>2010-10-01T08:24:25Z</time>
      </trkpt>
      <trkpt lat="47.87886" lon="-2.74698">
        <ele>93.7</ele>
        <time>2010-10-01T03:35:38Z</time>
      </trkpt>
      <trkpt lat="47.8785" lon="-2.74724">
        <ele>91.6</ele>
        <time>2010-10-01T08:31:31Z</time>
      </trkpt>
      <trkpt lat="47.87769" lon="-2.74721">
        <ele>90.2</ele>
        <time>2010-10-01T08:31:40Z</time>
      </trkpt>
      <trkpt lat="47.8769" lon="-2.74713">
        <ele>92.4</ele>
        <time>2010-10-01T08:31:50Z</time>
      </trkpt>
      <trkpt lat="47.87659" lon="-2.74783">
        <ele>95.4</ele>
        <time>2010-10-01T08:24:55Z</time>
      </trkpt>
      <trkpt lat="47.87625" lon="-2.74842">
        <ele>97.6</ele>
        <time>2010-10-01T02:46:43Z</time>
      </trkpt>
      <trkpt lat="47.87606" lon="-2.74868">
        <ele>100.6</ele>
        <time>2010-10-01T08:32:05Z</time>
      </trkpt>
      <trkpt lat="47.87617" lon="-2.74974">
        <ele>100.6</ele>
        <time>2010-10-01T08:25:21Z</time>
      </trkpt>
      <trkpt lat="47.8765" lon="-2.75107">
        <ele>104.1</ele>
        <time>2010-10-01T08:32:23Z</time>
      </trkpt>
      <trkpt lat="47.87582" lon="-2.75142">
        <ele>105.1</ele>
        <time>2010-10-01T08:32:31Z</time>
      </trkpt>
      <trkpt lat="47.87492" lon="-2.75152">
        <ele>103.8</ele>
        <time>2010-10-01T08:32:41Z</time>
      </trkpt>
      <trkpt lat="47.87418" lon="-2.75233">
        <ele>101.9</ele>
        <time>2010-10-01T08:32:51Z</time>
      </trkpt>
      <trkpt lat="47.87358" lon="-2.75288">
        <ele>100</ele>
        <time>2010-10-01T08:32:59Z</time>
      </trkpt>
      <trkpt lat="47.87287" lon="-2.75347">
        <ele>96.8</ele>
        <time>2010-10-01T08:33:08Z</time>
      </trkpt>
      <trkpt lat="47.87215" lon="-2.75475">
        <ele>88.8</ele>
        <time>2010-10-01T08:33:21Z</time>
      </trkpt>
      <trkpt lat="47.87189" lon="-2.75566">
        <ele>82.8</ele>
        <time>2010-10-01T08:33:28Z</time>
      </trkpt>
      <trkpt lat="47.87224" lon="-2.75615">
        <ele>90.9</ele>
        <time>2010-10-01T08:25:21Z</time>
      </trkpt>
      <trkpt lat="47.87235" lon="-2.75633">
        <ele>90.7</ele>
        <time>2010-10-01T04:51:22Z</time>
      </trkpt>
      <trkpt lat="47.87245" lon="-2.75654">
        <ele>90.3</ele>
        <time>2010-10-01T05:15:01Z</time>
      </trkpt>
      <trkpt lat="47.87252" lon="-2.75679">
        <ele>89.9</ele>
        <time>2010-10-01T05:40:01Z</time>
      </trkpt>
      <trkpt lat="47.87258" lon="-2.75709">
        <ele>89.6</ele>
        <time>2010-10-01T06:09:44Z</time>
      </trkpt>
      <trkpt lat="47.87264" lon="-2.7574">
        <ele>89.1</ele>
        <time>2010-10-01T06:39:23Z</time>
      </trkpt>
      <trkpt lat="47.87277" lon="-2.75767">
        <ele>89</ele>
        <time>2010-10-01T07:12:02Z</time>
      </trkpt>
      <trkpt lat="47.87305" lon="-2.75831">
        <ele>89</ele>
        <time>2010-10-01T07:48:18Z</time>
      </trkpt>
      <trkpt lat="47.87292" lon="-2.75878">
        <ele>88.2</ele>
        <time>2010-10-01T08:33:52Z</time>
      </trkpt>
      <trkpt lat="47.87363" lon="-2.75965">
        <ele>88</ele>
        <time>2010-10-01T08:25:12Z</time>
      </trkpt>
      <trkpt lat="47.87432" lon="-2.76047">
        <ele>89.6</ele>
        <time>2010-10-01T04:28:04Z</time>
      </trkpt>
      <trkpt lat="47.87478" lon="-2.76103">
        <ele>90.5</ele>
        <time>2010-10-01T07:18:33Z</time>
      </trkpt>
      <trkpt lat="47.87514" lon="-2.76185">
        <ele>92.5</ele>
        <time>2010-10-01T08:34:24Z</time>
      </trkpt>
      <trkpt lat="47.8752" lon="-2.76236">
        <ele>95</ele>
        <time>2010-10-01T08:34:32Z</time>
      </trkpt>
      <trkpt lat="47.87518" lon="-2.76298">
        <ele>96.7</ele>
        <time>2010-10-01T08:34:37Z</time>
      </trkpt>
      <trkpt lat="47.87505" lon="-2.76383">
        <ele>94.5</ele>
        <time>2010-10-01T08:34:42Z</time>
      </trkpt>
      <trkpt lat="47.87495" lon="-2.76476">
        <ele>106</ele>
        <time>2010-10-01T08:34:49Z</time>
      </trkpt>
      <trkpt lat="47.87591" lon="-2.76607">
        <ele>111.4</ele>
        <time>2010-10-01T08:35:04Z</time>
      </trkpt>
      <trkpt lat="47.87535" lon="-2.76671">
        <ele>112.5</ele>
        <time>2010-10-01T08:35:14Z</time>
      </trkpt>
      <trkpt lat="47.87488" lon="-2.76764">
        <ele>112.7</ele>
        <time>2010-10-01T08:35:28Z</time>
      </trkpt>
      <trkpt lat="47.87461" lon="-2.7683">
        <ele>114</ele>
        <time>2010-10-01T08:31:52Z</time>
      </trkpt>
      <trkpt lat="47.87486" lon="-2.76848">
        <ele>114.4</ele>
        <time>2010-10-01T07:45:25Z</time>
      </trkpt>
      <trkpt lat="47.87526" lon="-2.76912">
        <ele>115.9</ele>
        <time>2010-10-01T07:53:22Z</time>
      </trkpt>
      <trkpt lat="47.87568" lon="-2.76978">
        <ele>114.7</ele>
        <time>2010-10-01T08:01:29Z</time>
      </trkpt>
      <trkpt lat="47.87581" lon="-2.76996">
        <ele>114.1</ele>
        <time>2010-10-01T08:03:49Z</time>
      </trkpt>
      <trkpt lat="47.87614" lon="-2.77011">
        <ele>113.3</ele>
        <time>2010-10-01T08:08:16Z</time>
      </trkpt>
      <trkpt lat="47.87666" lon="-2.77019">
        <ele>112.2</ele>
        <time>2010-10-01T08:15:09Z</time>
      </trkpt>
      <trkpt lat="47.87707" lon="-2.77062">
        <ele>112.8</ele>
        <time>2010-10-01T08:21:27Z</time>
      </trkpt>
      <trkpt lat="47.87734" lon="-2.77106">
        <ele>114.1</ele>
        <time>2010-10-01T08:25:43Z</time>
      </trkpt>
      <trkpt lat="47.87753" lon="-2.77136">
        <ele>115.7</ele>
        <time>2010-10-01T08:28:09Z</time>
      </trkpt>
      <trkpt lat="47.87764" lon="-2.77161">
        <ele>117.3</ele>
        <time>2010-10-01T04:03:54Z</time>
      </trkpt>
      <trkpt lat="47.87676" lon="-2.77307">
        <ele>119.5</ele>
        <time>2010-10-01T08:36:01Z</time>
      </trkpt>
      <trkpt lat="47.87797" lon="-2.77398">
        <ele>123.8</ele>
        <time>2010-10-01T08:36:09Z</time>
      </trkpt>
    </trkseg>
  </trk>
</gpx>